Time;durP1;ratioP1;P1;durP2;ratioP2;P2;SDS_P1;SDS_P2;PMS_P1;PMS_P2;Temp;Humidity;BMP_temperature;BMP_pressure;BME280_temperature;BME280_humidity;BME280_pressure;Samples;Min_cycle;Max_cycle;Signal;HPM_P1;HPM_P2
2024/04/16 00:00:25;;;;;;;3.45;2.20;;;5.40;99.90;;;;;;5505785;25;20015;-46
2024/04/16 00:02:52;;;;;;;2.80;2.20;;;5.30;99.90;;;;;;5514177;25;20012;-46
2024/04/16 00:05:19;;;;;;;3.63;2.28;;;5.30;99.90;;;;;;5507303;25;20012;-46
2024/04/16 00:07:46;;;;;;;6.45;2.50;;;5.30;99.90;;;;;;5547897;25;20477;-45
2024/04/16 00:10:13;;;;;;;3.92;2.40;;;5.40;99.90;;;;;;5535552;25;20062;-47
2024/04/16 00:12:40;;;;;;;3.53;2.22;;;5.40;99.90;;;;;;5494471;25;20025;-48
2024/04/16 00:15:25;;;;;;;3.75;2.22;;;5.40;99.90;;;;;;5537106;25;20470;-48
2024/04/16 00:17:53;;;;;;;4.75;2.40;;;5.40;99.90;;;;;;5509275;25;20012;-44
2024/04/16 00:20:20;;;;;;;3.10;2.40;;;5.40;99.90;;;;;;5516126;25;20081;-50
2024/04/16 00:22:47;;;;;;;4.57;2.70;;;5.40;99.90;;;;;;5553693;25;20077;-47
2024/04/16 00:25:14;;;;;;;4.25;2.70;;;5.40;99.90;;;;;;5542637;25;20501;-47
2024/04/16 00:27:43;;;;;;;7.30;2.80;;;5.30;99.90;;;;;;5512214;25;20013;-46
2024/04/16 00:30:10;;;;;;;4.82;2.85;;;5.30;99.90;;;;;;5550598;25;19996;-48
2024/04/16 00:32:37;;;;;;;4.57;2.53;;;5.30;99.90;;;;;;5536844;25;19997;-44
2024/04/16 00:35:04;;;;;;;4.25;2.70;;;5.40;99.90;;;;;;5544084;25;20015;-42
2024/04/16 00:37:32;;;;;;;5.25;2.80;;;5.30;99.90;;;;;;5555519;25;20301;-43
2024/04/16 00:39:59;;;;;;;4.63;2.78;;;5.30;99.90;;;;;;5549437;25;20334;-46
2024/04/16 00:42:26;;;;;;;5.78;2.75;;;5.40;99.90;;;;;;5547947;25;20457;-43
2024/04/16 00:44:53;;;;;;;4.03;2.42;;;5.40;99.90;;;;;;5540970;25;20350;-39
2024/04/16 00:47:20;;;;;;;5.47;2.80;;;5.40;99.90;;;;;;5545289;25;20033;-45
2024/04/16 00:49:48;;;;;;;6.15;2.70;;;5.40;99.90;;;;;;5535004;25;20016;-45
2024/04/16 00:52:15;;;;;;;5.35;2.97;;;5.40;99.90;;;;;;5540669;25;20067;-45
2024/04/16 00:54:43;;;;;;;3.92;2.70;;;5.50;99.90;;;;;;5535510;25;20005;-43
2024/04/16 00:57:10;;;;;;;6.75;2.80;;;5.50;99.90;;;;;;5553804;25;20032;-46
2024/04/16 00:59:39;;;;;;;5.25;2.83;;;5.40;99.90;;;;;;5546480;25;20002;-47
2024/04/16 01:02:06;;;;;;;4.97;2.67;;;5.50;99.90;;;;;;5539315;25;20346;-45
2024/04/16 01:04:33;;;;;;;9.43;3.15;;;5.50;99.90;;;;;;5539620;25;20011;-46
2024/04/16 01:07:00;;;;;;;5.82;2.85;;;5.60;99.90;;;;;;5552161;25;20016;-43
2024/04/16 01:09:28;;;;;;;5.00;2.40;;;5.60;99.90;;;;;;5545614;25;20001;-45
2024/04/16 01:11:58;;;;;;;5.45;2.63;;;5.70;99.90;;;;;;5537693;25;20236;-42
2024/04/16 01:14:26;;;;;;;6.28;2.60;;;5.60;99.90;;;;;;5541297;25;20442;-47
2024/04/16 01:16:54;;;;;;;6.05;2.90;;;5.70;99.90;;;;;;5536639;25;20607;-45
2024/04/16 01:19:22;;;;;;;9.02;3.20;;;5.80;99.90;;;;;;5543963;25;20001;-45
2024/04/16 01:21:49;;;;;;;6.25;2.70;;;5.70;99.90;;;;;;5528915;25;20026;-46
2024/04/16 01:24:16;;;;;;;6.20;3.00;;;5.80;99.90;;;;;;5547855;25;20087;-46
2024/04/16 01:26:43;;;;;;;8.43;2.90;;;5.60;99.90;;;;;;5538667;25;20524;-41
2024/04/16 01:29:10;;;;;;;6.40;2.67;;;5.70;99.90;;;;;;5538884;25;20313;-45
2024/04/16 01:31:37;;;;;;;4.43;2.53;;;5.60;99.90;;;;;;5544060;25;20345;-45
2024/04/16 01:34:04;;;;;;;5.10;2.80;;;5.60;99.90;;;;;;5549082;25;20024;-47
2024/04/16 01:36:31;;;;;;;4.45;2.60;;;5.70;99.90;;;;;;5548834;25;20041;-45
2024/04/16 01:38:58;;;;;;;5.55;3.00;;;5.60;99.90;;;;;;5536069;25;20007;-47
2024/04/16 01:41:26;;;;;;;5.78;2.55;;;5.70;99.90;;;;;;5550582;25;20013;-41
2024/04/16 01:43:53;;;;;;;8.23;3.05;;;5.70;99.90;;;;;;5519111;25;20200;-49
2024/04/16 01:46:20;;;;;;;8.02;2.88;;;5.60;99.90;;;;;;5550936;25;20016;-41
2024/04/16 01:48:47;;;;;;;5.53;2.50;;;5.70;99.90;;;;;;5537551;25;20533;-42
2024/04/16 01:51:14;;;;;;;6.07;2.30;;;5.70;99.90;;;;;;5541936;25;20296;-45
2024/04/16 01:53:41;;;;;;;5.47;2.45;;;5.70;99.90;;;;;;5504548;25;19997;-46
2024/04/16 01:56:09;;;;;;;4.95;2.38;;;5.70;99.90;;;;;;5535578;25;20001;-44
2024/04/16 01:58:36;;;;;;;5.80;2.40;;;5.60;99.90;;;;;;5547525;25;20016;-47
2024/04/16 02:01:03;;;;;;;5.80;2.40;;;5.60;99.90;;;;;;5546723;25;20008;-47
2024/04/16 02:03:30;;;;;;;4.07;2.30;;;5.50;99.90;;;;;;5545276;25;20002;-42
2024/04/16 02:05:58;;;;;;;4.63;2.40;;;5.50;99.90;;;;;;5527741;25;20013;-45
2024/04/16 02:08:25;;;;;;;4.60;2.22;;;5.50;99.90;;;;;;5539321;25;20144;-46
2024/04/16 02:10:57;;;;;;;4.72;2.47;;;5.50;99.90;;;;;;5518680;25;19998;-43
2024/04/16 02:13:25;;;;;;;4.38;2.30;;;5.40;99.90;;;;;;5526403;25;20080;-46
2024/04/16 02:15:52;;;;;;;6.50;2.63;;;5.40;99.90;;;;;;5526437;25;19998;-47
2024/04/16 02:18:20;;;;;;;5.93;3.10;;;5.40;99.90;;;;;;5507752;25;20560;-43
2024/04/16 02:20:47;;;;;;;5.68;2.45;;;5.50;99.90;;;;;;5531508;25;20013;-48
2024/04/16 02:23:14;;;;;;;5.55;2.42;;;5.40;99.90;;;;;;5544622;25;20044;-45
2024/04/16 02:25:48;;;;;;;3.83;2.35;;;5.50;99.90;;;;;;5548236;25;20011;-43
2024/04/16 02:28:15;;;;;;;3.33;2.30;;;5.50;99.90;;;;;;5551441;25;20060;-45
2024/04/16 02:30:43;;;;;;;6.10;3.15;;;5.50;99.90;;;;;;5523206;25;20037;-44
2024/04/16 02:33:13;;;;;;;6.50;2.40;;;5.40;99.90;;;;;;5552098;25;20468;-46
2024/04/16 02:35:40;;;;;;;4.22;2.50;;;5.50;99.90;;;;;;5498529;25;19997;-45
2024/04/16 02:38:07;;;;;;;4.13;2.58;;;5.50;99.90;;;;;;5529606;25;20036;-44
2024/04/16 02:40:35;;;;;;;4.78;3.08;;;5.50;99.90;;;;;;5540877;25;20000;-45
2024/04/16 02:43:03;;;;;;;7.00;2.92;;;5.40;99.90;;;;;;5541278;25;20004;-47
2024/04/16 02:45:31;;;;;;;5.80;2.40;;;5.40;99.90;;;;;;5526890;25;20592;-45
2024/04/16 02:47:58;;;;;;;4.38;2.42;;;5.40;99.90;;;;;;5527306;25;20021;-44
2024/04/16 02:50:26;;;;;;;4.72;2.47;;;5.40;99.90;;;;;;5546914;25;20008;-43
2024/04/16 02:52:53;;;;;;;4.88;2.35;;;5.30;99.90;;;;;;5540708;25;20215;-42
2024/04/16 02:55:23;;;;;;;3.30;2.17;;;5.30;99.90;;;;;;5528602;25;20403;-41
2024/04/16 02:57:50;;;;;;;7.28;2.50;;;5.30;99.90;;;;;;5540304;25;20030;-42
2024/04/16 03:00:17;;;;;;;4.00;2.30;;;4.90;99.90;;;;;;5539530;25;19997;-44
2024/04/16 03:02:44;;;;;;;6.57;2.50;;;4.70;99.90;;;;;;5536940;25;20005;-46
2024/04/16 03:05:12;;;;;;;6.95;2.33;;;4.50;99.90;;;;;;5525998;25;20655;-46
2024/04/16 03:07:43;;;;;;;5.38;2.40;;;4.30;99.90;;;;;;5532267;25;20013;-43
2024/04/16 03:10:15;;;;;;;9.15;2.50;;;4.10;99.90;;;;;;5511509;25;19992;-45
2024/04/16 03:12:43;;;;;;;6.07;2.10;;;4.10;99.90;;;;;;5530670;25;20027;-46
2024/04/16 03:15:10;;;;;;;4.75;2.33;;;4.00;99.90;;;;;;5551536;25;19996;-46
2024/04/16 03:17:37;;;;;;;7.63;2.67;;;4.00;99.90;;;;;;5544018;25;20002;-54
2024/04/16 03:20:05;;;;;;;7.93;2.30;;;4.00;99.90;;;;;;5555500;25;20014;-50
2024/04/16 03:22:33;;;;;;;4.78;2.20;;;3.90;99.90;;;;;;5539469;25;20075;-49
2024/04/16 03:25:01;;;;;;;3.03;2.08;;;3.80;99.90;;;;;;5542953;25;20019;-50
2024/04/16 03:27:28;;;;;;;6.82;2.10;;;3.70;99.90;;;;;;5536930;25;20073;-48
2024/04/16 03:29:55;;;;;;;6.43;1.80;;;3.70;99.90;;;;;;5546965;25;20032;-45
2024/04/16 03:32:22;;;;;;;8.82;2.38;;;3.70;99.90;;;;;;5541441;25;20282;-44
2024/04/16 03:34:49;;;;;;;5.07;2.10;;;3.70;99.90;;;;;;5548813;25;20318;-43
2024/04/16 03:37:16;;;;;;;2.70;1.85;;;3.70;99.90;;;;;;5551167;25;20021;-45
2024/04/16 03:39:43;;;;;;;3.38;1.58;;;3.60;99.90;;;;;;5536144;25;20008;-43
2024/04/16 03:42:10;;;;;;;3.85;2.00;;;3.60;99.90;;;;;;5546848;25;20421;-47
2024/04/16 03:44:37;;;;;;;3.65;1.60;;;3.60;99.90;;;;;;5539790;25;20005;-47
2024/04/16 03:47:04;;;;;;;3.88;1.60;;;3.60;99.90;;;;;;5536920;25;20429;-44
2024/04/16 03:49:31;;;;;;;4.95;2.03;;;3.70;99.90;;;;;;5553998;25;20001;-46
2024/04/16 03:51:58;;;;;;;4.35;2.10;;;3.70;99.90;;;;;;5535679;25;20001;-48
2024/04/16 03:54:26;;;;;;;3.45;2.03;;;3.80;99.90;;;;;;5524137;25;19997;-46
2024/04/16 03:56:53;;;;;;;3.72;1.98;;;3.80;99.90;;;;;;5532298;25;20009;-46
2024/04/16 03:59:37;;;;;;;4.05;1.88;;;3.90;99.90;;;;;;5538133;25;20342;-45
2024/04/16 04:02:05;;;;;;;4.35;2.20;;;3.90;99.90;;;;;;5540526;25;20029;-45
2024/04/16 04:04:33;;;;;;;5.82;2.17;;;3.90;99.90;;;;;;5537459;25;20016;-48
2024/04/16 04:07:01;;;;;;;5.50;2.60;;;3.90;99.90;;;;;;5544222;25;20004;-46
2024/04/16 04:09:28;;;;;;;5.95;2.38;;;4.00;99.90;;;;;;5545574;25;20550;-46
2024/04/16 04:11:55;;;;;;;6.80;2.42;;;4.00;99.90;;;;;;5538847;25;20009;-46
2024/04/16 04:14:22;;;;;;;6.85;2.70;;;4.00;99.90;;;;;;5528149;25;20108;-40
2024/04/16 04:16:49;;;;;;;8.75;2.60;;;4.10;99.90;;;;;;5547039;25;20111;-47
2024/04/16 04:19:16;;;;;;;5.38;2.40;;;4.20;99.90;;;;;;5538734;25;20020;-47
2024/04/16 04:21:43;;;;;;;7.25;2.60;;;4.10;99.90;;;;;;5529677;25;20006;-46
2024/04/16 04:24:16;;;;;;;6.25;2.42;;;4.20;99.90;;;;;;5544084;25;20000;-50
2024/04/16 04:26:58;;;;;;;3.78;2.33;;;4.40;99.90;;;;;;5524955;25;19997;-49
2024/04/16 04:29:25;;;;;;;6.03;2.13;;;4.40;99.90;;;;;;5547190;25;20343;-46
2024/04/16 04:31:52;;;;;;;2.63;1.98;;;4.50;99.90;;;;;;5537110;25;20012;-47
2024/04/16 04:34:19;;;;;;;4.32;2.83;;;4.60;99.90;;;;;;5542300;25;20009;-46
2024/04/16 04:36:46;;;;;;;3.85;2.80;;;3.80;99.90;;;;;;5542345;25;20435;-44
2024/04/16 04:39:13;;;;;;;4.25;2.85;;;3.10;99.90;;;;;;5533764;25;20011;-45
2024/04/16 04:41:40;;;;;;;4.50;2.63;;;2.60;99.90;;;;;;5529930;25;20498;-46
2024/04/16 04:44:07;;;;;;;3.05;2.50;;;2.40;99.90;;;;;;5540677;25;20010;-41
2024/04/16 04:46:34;;;;;;;2.75;2.50;;;2.30;99.90;;;;;;5527565;25;20016;-45
2024/04/16 04:49:02;;;;;;;2.83;2.53;;;2.20;99.90;;;;;;5538735;25;19993;-42
2024/04/16 04:51:29;;;;;;;2.58;2.38;;;2.20;99.90;;;;;;5537531;25;20002;-47
2024/04/16 04:53:56;;;;;;;3.47;2.78;;;2.20;99.90;;;;;;5541134;25;20001;-49
2024/04/16 04:56:23;;;;;;;5.15;2.83;;;2.30;99.90;;;;;;5527096;25;20418;-44
2024/04/16 04:58:50;;;;;;;3.90;2.60;;;2.30;99.90;;;;;;5548483;25;20414;-45
2024/04/16 05:01:17;;;;;;;3.97;2.47;;;2.40;99.90;;;;;;5539952;25;20358;-42
2024/04/16 05:03:44;;;;;;;5.57;2.58;;;2.40;99.90;;;;;;5550590;25;20011;-43
2024/04/16 05:06:11;;;;;;;4.13;2.75;;;2.50;99.90;;;;;;5541005;25;20008;-45
2024/04/16 05:08:38;;;;;;;6.90;3.00;;;2.50;99.90;;;;;;5548789;25;20037;-42
2024/04/16 05:11:05;;;;;;;4.72;3.03;;;2.70;99.90;;;;;;5547365;25;20461;-44
2024/04/16 05:13:32;;;;;;;4.35;2.60;;;2.70;99.90;;;;;;5532527;25;20186;-41
2024/04/16 05:16:01;;;;;;;7.60;3.22;;;2.90;99.90;;;;;;5548479;25;20065;-45
2024/04/16 05:18:28;;;;;;;3.75;2.67;;;2.90;99.90;;;;;;5535299;25;20005;-46
2024/04/16 05:20:58;;;;;;;4.88;2.80;;;3.00;99.90;;;;;;5560640;25;20058;-47
2024/04/16 05:23:26;;;;;;;4.95;2.78;;;3.00;99.90;;;;;;5536033;25;19997;-44
2024/04/16 05:25:54;;;;;;;6.68;3.00;;;3.10;99.90;;;;;;5527942;25;19997;-42
2024/04/16 05:28:22;;;;;;;7.22;3.15;;;3.10;99.90;;;;;;5535852;25;20323;-45
2024/04/16 05:30:49;;;;;;;4.97;3.00;;;3.20;99.90;;;;;;5547021;25;20004;-46
2024/04/16 05:33:16;;;;;;;4.60;2.55;;;3.30;99.90;;;;;;5541031;25;20587;-47
2024/04/16 05:35:44;;;;;;;6.53;2.60;;;3.40;99.90;;;;;;5542434;25;20075;-42
2024/04/16 05:38:11;;;;;;;7.45;2.63;;;3.40;99.90;;;;;;5539930;25;20004;-47
2024/04/16 05:40:38;;;;;;;6.80;2.70;;;3.40;99.90;;;;;;5538222;25;20076;-45
2024/04/16 05:43:05;;;;;;;4.28;2.35;;;3.40;99.90;;;;;;5547042;25;20012;-43
2024/04/16 05:45:32;;;;;;;5.55;3.05;;;3.40;99.90;;;;;;5505317;25;20006;-43
2024/04/16 05:47:59;;;;;;;5.22;2.75;;;3.40;99.90;;;;;;5532436;25;20010;-44
2024/04/16 05:50:26;;;;;;;5.10;2.30;;;3.40;99.90;;;;;;5543211;25;20002;-41
2024/04/16 05:52:54;;;;;;;5.57;2.58;;;3.50;99.90;;;;;;5534581;25;20009;-43
2024/04/16 05:55:21;;;;;;;5.70;2.30;;;3.50;99.90;;;;;;5546977;25;20485;-46
2024/04/16 05:57:48;;;;;;;7.88;2.85;;;3.60;99.90;;;;;;5546749;25;20009;-47
2024/04/16 06:00:15;;;;;;;9.63;2.35;;;3.70;99.90;;;;;;5538566;25;20020;-44
2024/04/16 06:02:42;;;;;;;6.15;3.20;;;3.70;99.90;;;;;;5525562;25;20061;-44
2024/04/16 06:05:10;;;;;;;4.70;2.80;;;3.70;99.90;;;;;;5528940;25;20126;-43
2024/04/16 06:07:36;;;;;;;6.60;2.55;;;3.80;99.90;;;;;;5536165;25;20001;-46
2024/04/16 06:10:04;;;;;;;9.88;4.47;;;4.00;99.90;;;;;;5536086;25;20012;-44
2024/04/16 06:12:31;;;;;;;4.78;2.20;;;4.10;99.90;;;;;;5548841;25;20013;-47
2024/04/16 06:15:01;;;;;;;5.45;2.47;;;4.30;99.90;;;;;;5531717;25;20016;-42
2024/04/16 06:17:29;;;;;;;6.75;3.47;;;4.40;99.90;;;;;;5547739;25;20009;-44
2024/04/16 06:19:56;;;;;;;6.80;3.05;;;4.40;99.90;;;;;;5541115;25;19994;-44
2024/04/16 06:22:23;;;;;;;8.52;2.63;;;4.40;99.90;;;;;;5542775;25;20288;-47
2024/04/16 06:24:51;;;;;;;8.18;2.22;;;4.50;99.90;;;;;;5551191;25;20613;-45
2024/04/16 06:27:18;;;;;;;6.47;3.00;;;4.50;99.90;;;;;;5549503;25;20001;-43
2024/04/16 06:29:45;;;;;;;9.95;2.85;;;4.60;99.90;;;;;;5539706;25;20348;-46
2024/04/16 06:32:16;;;;;;;6.45;2.53;;;4.70;99.90;;;;;;5531846;25;20049;-41
2024/04/16 06:34:43;;;;;;;9.32;2.65;;;4.80;99.90;;;;;;5539989;25;20009;-47
2024/04/16 06:37:10;;;;;;;7.38;2.60;;;4.90;99.90;;;;;;5530138;25;20053;-45
2024/04/16 06:39:37;;;;;;;11.32;3.03;;;4.90;99.90;;;;;;5536454;25;20072;-48
2024/04/16 06:42:04;;;;;;;8.45;2.80;;;5.00;99.90;;;;;;5541139;25;20017;-44
2024/04/16 06:44:31;;;;;;;6.38;2.90;;;5.10;99.90;;;;;;5541354;25;20001;-42
2024/04/16 06:46:59;;;;;;;11.85;2.95;;;5.20;99.90;;;;;;5543849;25;20025;-45
2024/04/16 06:49:26;;;;;;;6.03;2.75;;;5.30;99.90;;;;;;5526962;25;20106;-47
2024/04/16 06:51:54;;;;;;;11.85;3.78;;;5.40;99.90;;;;;;5548930;25;20012;-42
2024/04/16 06:54:21;;;;;;;8.38;2.80;;;5.60;99.90;;;;;;5549552;25;20009;-47
2024/04/16 06:56:48;;;;;;;8.50;3.25;;;5.80;99.90;;;;;;5551730;25;20001;-44
2024/04/16 06:59:15;;;;;;;6.15;2.85;;;5.90;99.90;;;;;;5553628;25;20017;-47
2024/04/16 07:01:42;;;;;;;8.20;3.10;;;6.00;99.90;;;;;;5549543;25;19998;-48
2024/04/16 07:04:11;;;;;;;6.90;2.80;;;6.00;99.90;;;;;;5548458;25;20000;-45
2024/04/16 07:06:38;;;;;;;9.27;3.38;;;6.10;99.90;;;;;;5533912;25;20014;-47
2024/04/16 07:09:05;;;;;;;7.43;3.15;;;6.20;99.90;;;;;;5536613;25;20076;-46
2024/04/16 07:11:34;;;;;;;7.90;3.10;;;6.20;99.90;;;;;;5550617;25;20006;-45
2024/04/16 07:14:01;;;;;;;7.25;3.20;;;6.30;99.90;;;;;;5540076;25;20000;-47
2024/04/16 07:16:29;;;;;;;9.10;2.83;;;6.50;99.90;;;;;;5548930;25;20037;-47
2024/04/16 07:18:56;;;;;;;13.13;3.55;;;6.60;99.90;;;;;;5545223;25;20128;-47
2024/04/16 07:21:23;;;;;;;9.75;2.85;;;6.60;99.90;;;;;;5542616;25;20081;-43
2024/04/16 07:23:50;;;;;;;7.10;3.33;;;6.60;99.90;;;;;;5536592;25;20012;-43
2024/04/16 07:26:17;;;;;;;13.13;3.88;;;6.70;99.90;;;;;;5553013;25;20007;-45
2024/04/16 07:28:44;;;;;;;7.88;3.30;;;6.80;99.90;;;;;;5555666;25;20005;-44
2024/04/16 07:31:11;;;;;;;10.50;3.90;;;6.80;99.90;;;;;;5542064;25;20004;-47
2024/04/16 07:33:44;;;;;;;12.95;3.65;;;7.00;99.90;;;;;;5547255;25;19998;-43
2024/04/16 07:36:12;;;;;;;9.15;3.50;;;6.90;99.90;;;;;;5545620;25;20400;-42
2024/04/16 07:38:39;;;;;;;6.72;3.10;;;6.90;99.90;;;;;;5549642;25;20621;-46
2024/04/16 07:41:06;;;;;;;6.50;3.53;;;6.90;99.90;;;;;;5547504;25;20091;-43
2024/04/16 07:43:34;;;;;;;9.63;3.45;;;6.90;99.90;;;;;;5528319;25;20033;-48
2024/04/16 07:46:01;;;;;;;12.82;3.42;;;7.00;99.90;;;;;;5555156;25;19996;-45
2024/04/16 07:48:29;;;;;;;7.78;3.17;;;7.00;99.90;;;;;;5510761;25;20474;-45
2024/04/16 07:50:56;;;;;;;10.00;3.60;;;7.00;99.90;;;;;;5549352;25;20371;-46
2024/04/16 07:53:23;;;;;;;8.65;3.85;;;7.00;99.90;;;;;;5516759;26;20493;-43
2024/04/16 07:55:50;;;;;;;7.22;3.55;;;6.90;99.90;;;;;;5548584;25;20016;-47
2024/04/16 07:58:17;;;;;;;11.45;3.95;;;7.00;99.90;;;;;;5555983;25;20004;-49
2024/04/16 08:00:44;;;;;;;8.52;3.42;;;7.20;99.90;;;;;;5556249;25;20017;-49
2024/04/16 08:03:11;;;;;;;8.25;3.42;;;7.20;99.90;;;;;;5538098;25;20406;-46
2024/04/16 08:05:39;;;;;;;7.85;3.22;;;7.40;99.90;;;;;;5547705;25;20012;-45
2024/04/16 08:08:06;;;;;;;5.25;3.00;;;7.60;99.90;;;;;;5545443;25;20016;-46
2024/04/16 08:10:39;;;;;;;7.55;3.28;;;7.70;99.90;;;;;;5542458;25;20500;-43
2024/04/16 08:13:07;;;;;;;6.13;3.10;;;7.60;99.90;;;;;;5542220;25;20419;-45
2024/04/16 08:15:34;;;;;;;7.22;3.45;;;7.70;99.90;;;;;;5504040;25;20002;-44
2024/04/16 08:18:01;;;;;;;7.32;3.50;;;7.70;99.90;;;;;;5536522;25;20008;-45
2024/04/16 08:20:29;;;;;;;8.60;4.05;;;7.80;99.90;;;;;;5539574;25;20008;-47
2024/04/16 08:22:57;;;;;;;9.40;3.83;;;7.80;99.90;;;;;;5549632;25;20025;-46
2024/04/16 08:25:24;;;;;;;8.98;4.10;;;8.00;99.90;;;;;;5523409;25;20093;-43
2024/04/16 08:27:51;;;;;;;9.50;4.55;;;8.10;99.90;;;;;;5530594;25;20015;-49
2024/04/16 08:30:18;;;;;;;10.40;3.90;;;8.20;99.90;;;;;;5539363;25;20003;-43
2024/04/16 08:32:45;;;;;;;8.20;3.83;;;8.10;99.90;;;;;;5542375;25;20506;-43
2024/04/16 08:35:27;;;;;;;6.80;4.30;;;8.30;99.90;;;;;;5533040;25;20551;-44
2024/04/16 08:37:54;;;;;;;13.85;4.20;;;8.20;99.90;;;;;;5538447;25;20001;-45
2024/04/16 08:40:23;;;;;;;9.63;3.42;;;8.40;99.90;;;;;;5525553;25;20477;-47
2024/04/16 08:42:52;;;;;;;11.55;3.78;;;8.50;99.90;;;;;;5533022;25;20000;-45
2024/04/16 08:45:21;;;;;;;8.38;3.70;;;8.70;99.90;;;;;;5531666;25;20353;-45
2024/04/16 08:47:51;;;;;;;9.18;3.90;;;8.50;99.90;;;;;;5540196;25;20373;-43
2024/04/16 08:50:21;;;;;;;9.43;3.67;;;8.50;99.90;;;;;;5538564;25;20081;-43
2024/04/16 08:52:55;;;;;;;8.70;3.63;;;8.20;99.90;;;;;;5537914;25;19993;-41
2024/04/16 08:55:24;;;;;;;9.18;3.78;;;8.30;99.90;;;;;;5500556;25;20008;-45
2024/04/16 08:57:51;;;;;;;8.00;4.10;;;8.40;99.90;;;;;;5551490;25;20002;-42
2024/04/16 09:00:19;;;;;;;8.00;4.00;;;8.50;99.90;;;;;;5527153;25;20634;-45
2024/04/16 09:02:46;;;;;;;12.40;4.22;;;8.30;99.90;;;;;;5524636;25;19997;-46
2024/04/16 09:05:13;;;;;;;8.70;5.13;;;8.50;99.90;;;;;;5540756;25;20007;-45
2024/04/16 09:07:41;;;;;;;8.10;3.95;;;8.60;99.90;;;;;;5526139;25;20006;-45
2024/04/16 09:10:21;;;;;;;8.57;3.65;;;8.80;99.90;;;;;;5538442;25;20016;-47
2024/04/16 09:12:49;;;;;;;7.25;3.40;;;8.90;99.90;;;;;;5525535;25;20354;-43
2024/04/16 09:15:17;;;;;;;6.70;3.47;;;8.90;99.90;;;;;;5533422;25;20005;-44
2024/04/16 09:17:56;;;;;;;7.18;3.55;;;8.80;99.90;;;;;;5536944;25;20439;-43
2024/04/16 09:20:25;;;;;;;7.40;3.80;;;9.10;99.90;;;;;;5526582;25;20433;-42
2024/04/16 09:22:53;;;;;;;8.55;3.78;;;9.00;99.90;;;;;;5521972;25;20037;-44
2024/04/16 09:25:23;;;;;;;8.30;4.40;;;9.10;99.90;;;;;;5536105;25;20008;-43
2024/04/16 09:27:52;;;;;;;8.00;4.00;;;9.20;99.90;;;;;;5542302;25;20374;-46
2024/04/16 09:30:20;;;;;;;13.27;4.20;;;9.10;99.90;;;;;;5529115;25;20096;-47
2024/04/16 09:32:57;;;;;;;11.52;4.30;;;9.20;99.90;;;;;;5537704;25;20554;-45
2024/04/16 09:35:26;;;;;;;6.10;3.60;;;9.30;99.90;;;;;;5542825;25;20025;-48
2024/04/16 09:38:18;;;;;;;6.97;3.75;;;9.20;99.90;;;;;;5537133;25;20006;-46
2024/04/16 09:40:46;;;;;;;;;;;9.30;99.90;;;;;;5529879;25;20013;-44
2024/04/16 09:43:16;;;;;;;6.68;3.60;;;9.50;99.90;;;;;;5537086;25;20232;-44
2024/04/16 09:45:47;;;;;;;6.28;3.50;;;9.70;99.90;;;;;;5528695;25;20614;-45
2024/04/16 09:48:16;;;;;;;7.28;3.83;;;9.70;99.90;;;;;;5521551;25;19997;-43
2024/04/16 09:50:45;;;;;;;8.02;3.95;;;9.40;99.90;;;;;;5530463;25;20058;-49
2024/04/16 09:53:22;;;;;;;6.85;4.30;;;9.40;99.90;;;;;;5533692;25;20020;-45
2024/04/16 09:55:52;;;;;;;7.38;4.10;;;9.50;99.90;;;;;;5529116;25;20039;-44
2024/04/16 09:58:21;;;;;;;9.10;4.07;;;9.70;99.90;;;;;;5527049;25;20033;-45
2024/04/16 10:00:50;;;;;;;5.82;3.70;;;9.70;99.90;;;;;;5526107;25;20002;-52
2024/04/16 10:03:21;;;;;;;7.45;3.70;;;10.00;99.90;;;;;;5539740;25;20379;-45
2024/04/16 10:05:49;;;;;;;4.50;3.33;;;9.70;99.90;;;;;;5530278;25;20075;-45
2024/04/16 10:08:16;;;;;;;8.90;3.97;;;9.90;99.90;;;;;;5535017;25;20433;-48
2024/04/16 10:10:45;;;;;;;7.10;4.55;;;10.10;99.90;;;;;;5529642;25;20049;-51
2024/04/16 10:13:13;;;;;;;6.78;3.72;;;10.00;99.90;;;;;;5537429;25;20060;-44
2024/04/16 10:15:46;;;;;;;11.23;3.80;;;10.00;99.90;;;;;;5524532;25;19998;-44
2024/04/16 10:18:14;;;;;;;7.30;3.60;;;9.90;99.90;;;;;;5536097;25;19997;-41
2024/04/16 10:20:48;;;;;;;5.75;3.90;;;9.70;99.90;;;;;;5547233;25;20024;-44
2024/04/16 10:23:16;;;;;;;12.88;3.90;;;9.70;99.90;;;;;;5552621;25;19997;-44
2024/04/16 10:25:51;;;;;;;6.75;3.70;;;9.70;99.90;;;;;;5533818;25;20013;-42
2024/04/16 10:28:26;;;;;;;11.13;3.97;;;9.80;99.90;;;;;;5548093;25;20016;-44
2024/04/16 10:30:59;;;;;;;8.52;3.75;;;9.80;99.90;;;;;;5520904;25;20058;-44
2024/04/16 10:33:27;;;;;;;5.93;3.70;;;9.90;99.90;;;;;;5545885;25;20072;-46
2024/04/16 10:35:54;;;;;;;4.45;3.53;;;9.90;99.90;;;;;;5542938;25;20008;-43
2024/04/16 10:38:23;;;;;;;9.52;3.80;;;9.90;99.90;;;;;;5546293;25;20021;-44
2024/04/16 10:40:54;;;;;;;7.45;3.60;;;9.90;99.90;;;;;;5545622;25;20016;-47
2024/04/16 10:43:23;;;;;;;8.70;3.60;;;10.10;99.90;;;;;;5509324;25;20008;-44
2024/04/16 10:45:51;;;;;;;8.65;4.10;;;10.40;99.90;;;;;;5545754;25;20418;-46
2024/04/16 10:48:20;;;;;;;5.93;3.42;;;10.30;99.90;;;;;;5525638;25;20009;-47
2024/04/16 10:50:49;;;;;;;5.88;3.58;;;9.90;99.90;;;;;;5531620;25;20068;-41
2024/04/16 10:53:18;;;;;;;4.10;3.28;;;10.10;99.90;;;;;;5528669;25;20362;-41
2024/04/16 10:55:46;;;;;;;5.40;3.10;;;10.00;99.90;;;;;;5533159;25;20053;-45
2024/04/16 10:58:20;;;;;;;5.38;3.17;;;10.30;99.90;;;;;;5533205;25;20000;-45
2024/04/16 11:00:53;;;;;;;6.18;3.65;;;10.20;99.90;;;;;;5535142;25;20084;-46
2024/04/16 11:03:21;;;;;;;5.97;3.50;;;10.60;99.90;;;;;;5532033;25;20016;-42
2024/04/16 11:05:49;;;;;;;4.10;3.30;;;10.60;99.90;;;;;;5538742;25;20012;-43
2024/04/16 11:08:16;;;;;;;4.40;3.15;;;10.50;99.90;;;;;;5538692;25;20005;-44
2024/04/16 11:10:49;;;;;;;5.18;3.22;;;10.80;99.90;;;;;;5539803;25;20037;-45
2024/04/16 11:13:17;;;;;;;5.28;3.30;;;10.90;99.90;;;;;;5539681;25;20056;-40
2024/04/16 11:15:45;;;;;;;6.10;3.58;;;10.90;99.90;;;;;;5534226;25;20000;-46
2024/04/16 11:18:12;;;;;;;5.10;3.58;;;11.00;99.90;;;;;;5537161;25;20010;-47
2024/04/16 11:20:39;;;;;;;5.05;3.50;;;11.00;99.90;;;;;;5537134;25;20515;-47
2024/04/16 11:23:07;;;;;;;5.55;3.60;;;11.10;99.90;;;;;;5545512;25;20012;-46
2024/04/16 11:25:34;;;;;;;6.20;3.70;;;11.10;99.90;;;;;;5538237;25;20001;-43
2024/04/16 11:28:01;;;;;;;5.72;3.40;;;11.20;99.90;;;;;;5514857;25;20042;-46
2024/04/16 11:30:28;;;;;;;4.78;4.07;;;10.90;99.90;;;;;;5540837;25;20001;-46
2024/04/16 11:32:55;;;;;;;5.80;3.30;;;10.70;99.90;;;;;;5542630;25;20001;-45
2024/04/16 11:35:23;;;;;;;5.97;3.83;;;10.60;99.90;;;;;;5538663;25;19997;-49
2024/04/16 11:37:51;;;;;;;6.78;3.40;;;10.40;99.90;;;;;;5521357;25;20005;-44
2024/04/16 11:40:18;;;;;;;6.03;3.72;;;10.40;99.90;;;;;;5530348;25;20068;-42
2024/04/16 11:42:45;;;;;;;8.93;3.80;;;10.20;99.90;;;;;;5539397;25;20140;-45
2024/04/16 11:45:12;;;;;;;5.78;3.70;;;9.90;99.90;;;;;;5531491;25;20001;-45
2024/04/16 11:47:40;;;;;;;7.63;4.03;;;9.80;99.90;;;;;;5548192;25;20470;-43
2024/04/16 11:50:07;;;;;;;5.68;3.38;;;9.50;99.90;;;;;;5534357;25;20001;-43
2024/04/16 11:52:37;;;;;;;8.70;2.90;;;8.90;99.90;;;;;;5538582;25;20017;-45
2024/04/16 11:55:05;;;;;;;4.60;2.83;;;8.70;99.90;;;;;;5547838;25;20012;-42
2024/04/16 11:57:32;;;;;;;3.70;2.67;;;8.40;99.90;;;;;;5558820;25;20012;-43
2024/04/16 11:59:59;;;;;;;4.15;2.55;;;8.30;99.90;;;;;;5545615;25;20073;-49
2024/04/16 12:02:38;;;;;;;8.00;2.95;;;8.40;99.90;;;;;;5552784;25;20080;-43
2024/04/16 12:05:05;;;;;;;7.65;2.70;;;8.60;99.90;;;;;;5503578;25;20001;-46
2024/04/16 12:07:33;;;;;;;4.03;2.65;;;8.30;99.90;;;;;;5541821;25;20011;-41
2024/04/16 12:10:00;;;;;;;6.55;2.40;;;8.40;99.90;;;;;;5538468;25;20004;-46
2024/04/16 12:12:27;;;;;;;3.70;2.40;;;8.30;99.90;;;;;;5536232;25;20006;-44
2024/04/16 12:14:54;;;;;;;3.88;2.28;;;8.50;99.90;;;;;;5552414;25;19997;-46
2024/04/16 12:17:22;;;;;;;3.40;2.50;;;8.50;99.90;;;;;;5545934;25;20037;-41
2024/04/16 12:19:49;;;;;;;4.32;2.00;;;8.50;99.90;;;;;;5551546;25;19997;-45
2024/04/16 12:22:16;;;;;;;5.22;2.55;;;8.70;99.90;;;;;;5545980;25;20006;-42
2024/04/16 12:24:43;;;;;;;4.15;2.40;;;8.80;99.90;;;;;;5539904;25;20001;-45
2024/04/16 12:27:10;;;;;;;5.07;2.40;;;8.80;99.90;;;;;;5524704;25;20034;-45
2024/04/16 12:29:37;;;;;;;3.67;2.10;;;8.70;99.90;;;;;;5541926;25;19992;-46
2024/04/16 12:32:05;;;;;;;4.25;2.40;;;8.80;99.90;;;;;;5536973;25;20005;-44
2024/04/16 12:34:32;;;;;;;3.80;2.25;;;9.00;99.90;;;;;;5533791;25;20001;-47
2024/04/16 12:36:59;;;;;;;2.97;2.20;;;9.20;99.90;;;;;;5547296;25;20033;-43
2024/04/16 12:39:26;;;;;;;3.08;2.20;;;9.20;99.90;;;;;;5538139;25;20016;-43
2024/04/16 12:41:58;;;;;;;8.57;2.25;;;9.20;99.90;;;;;;5543736;25;20001;-44
2024/04/16 12:44:26;;;;;;;2.88;2.45;;;9.80;99.90;;;;;;5526670;25;20112;-46
2024/04/16 12:46:53;;;;;;;4.22;2.38;;;10.00;99.90;;;;;;5528530;25;20093;-44
2024/04/16 12:49:23;;;;;;;2.53;2.33;;;10.10;99.90;;;;;;5544725;25;20001;-49
2024/04/16 12:51:51;;;;;;;3.65;2.50;;;9.70;99.90;;;;;;5530337;25;20446;-45
2024/04/16 12:54:19;;;;;;;3.40;2.30;;;9.80;99.90;;;;;;5525237;25;20013;-48
2024/04/16 12:56:46;;;;;;;3.50;2.42;;;10.10;99.90;;;;;;5535496;25;20374;-46
2024/04/16 12:59:16;;;;;;;4.32;2.40;;;10.50;99.90;;;;;;5534867;25;20482;-49